HLF9852 EBBR-ZWWW
Flight info
| Callsign | HLF9852 |
|---|---|
| Flight time | N/A |
| Altitude | 33000 |
| Route | SOPOK Y863 ROPUV L607 UBIDU L984 LOHRE N746 ESOBU/K0904F330 DCT BENIM/K0913F350 M997 RATIN L999 AGLAN M864 INKEB L94 NAMER T765 GEMKI L94 NOGRI T872 IMANA DCT SARIN/K0878S1130 A368 OMKEN |
| Aircraft | B77L/H-SDE1E2E3FGHIJ2J3J4J5M1RWXY/LB1D1 |
Departure
| Time | N/A |
|---|---|
| Airport | Brussels Airport (EBBR) |
Arrival
| Time | 2026-04-26 16:10 |
|---|---|
| Airport | Ürümqi Tianshan International Airport (ZWWW) |
| Time | Latitude | Longitude | Altitude | Speed | Heading |
|---|---|---|---|---|---|
| 2026-04-26 09:47 | 50.20401 | 7.18382 | 33280 ft | 499 kts | 95° |
| 2026-04-26 09:48 | 50.19782 | 7.29192 | 33265 ft | 500 kts | 97° |
| 2026-04-26 09:48 | 50.18267 | 7.39781 | 33265 ft | 500 kts | 109° |
| 2026-04-26 09:49 | 50.16018 | 7.50057 | 33275 ft | 501 kts | 109° |
| 2026-04-26 09:49 | 50.13873 | 7.59925 | 33283 ft | 501 kts | 109° |
| 2026-04-26 09:50 | 50.11682 | 7.70181 | 33281 ft | 501 kts | 109° |
| 2026-04-26 09:50 | 50.09474 | 7.80508 | 33287 ft | 501 kts | 109° |
| 2026-04-26 09:51 | 50.07277 | 7.90831 | 33288 ft | 501 kts | 107° |
| 2026-04-26 09:51 | 50.05704 | 8.01391 | 33299 ft | 500 kts | 102° |
| 2026-04-26 09:52 | 50.04810 | 8.12126 | 33320 ft | 501 kts | 92° |
| 2026-04-26 09:52 | 50.05012 | 8.28354 | 33312 ft | 502 kts | 88° |
| 2026-04-26 09:53 | 50.05165 | 8.39245 | 33305 ft | 502 kts | 89° |
| 2026-04-26 09:53 | 50.05271 | 8.50040 | 33286 ft | 502 kts | 89° |
| 2026-04-26 09:54 | 50.05372 | 8.60925 | 33309 ft | 502 kts | 89° |
| 2026-04-26 09:54 | 50.05534 | 8.71806 | 33292 ft | 502 kts | 89° |
| 2026-04-26 09:55 | 50.05750 | 8.82670 | 33306 ft | 502 kts | 89° |
| 2026-04-26 09:55 | 50.05949 | 8.93541 | 33282 ft | 502 kts | 89° |
| 2026-04-26 09:56 | 50.06136 | 9.04364 | 33282 ft | 502 kts | 89° |
| 2026-04-26 09:56 | 50.06291 | 9.15259 | 33285 ft | 502 kts | 89° |
| 2026-04-26 09:57 | 50.06431 | 9.26152 | 33282 ft | 503 kts | 90° |
| 2026-04-26 09:57 | 50.06567 | 9.36993 | 33276 ft | 503 kts | 90° |
| 2026-04-26 09:58 | 50.06818 | 9.42391 | 33256 ft | 500 kts | 78° |
| 2026-04-26 09:58 | 50.07965 | 9.47498 | 33293 ft | 500 kts | 61° |
| 2026-04-26 09:58 | 50.09914 | 9.51969 | 33261 ft | 499 kts | 47° |
| 2026-04-26 09:58 | 50.12498 | 9.55560 | 33257 ft | 495 kts | 34° |
| 2026-04-26 09:59 | 50.17218 | 9.60650 | 33262 ft | 498 kts | 33° |
| 2026-04-26 09:59 | 50.23858 | 9.67884 | 33281 ft | 502 kts | 34° |
| 2026-04-26 10:00 | 50.29538 | 9.74277 | 33279 ft | 504 kts | 34° |
| 2026-04-26 10:00 | 50.35223 | 9.80734 | 33286 ft | 504 kts | 34° |
| 2026-04-26 10:01 | 50.40905 | 9.87188 | 33289 ft | 503 kts | 34° |
| 2026-04-26 10:01 | 50.46566 | 9.93633 | 33284 ft | 502 kts | 35° |
| 2026-04-26 10:02 | 50.52191 | 10.00053 | 33286 ft | 498 kts | 35° |
| 2026-04-26 10:02 | 50.57792 | 10.06465 | 33294 ft | 496 kts | 35° |
| 2026-04-26 10:03 | 50.63330 | 10.12827 | 33293 ft | 495 kts | 35° |
| 2026-04-26 10:03 | 50.68894 | 10.19236 | 33292 ft | 495 kts | 35° |
| 2026-04-26 10:04 | 50.73518 | 10.24579 | 33294 ft | 495 kts | 35° |
| 2026-04-26 10:04 | 50.79075 | 10.31017 | 33302 ft | 495 kts | 35° |
| 2026-04-26 10:05 | 50.84638 | 10.37482 | 33300 ft | 496 kts | 35° |
| 2026-04-26 10:05 | 50.90184 | 10.43943 | 33302 ft | 496 kts | 34° |
| 2026-04-26 10:06 | 50.95789 | 10.50317 | 33312 ft | 496 kts | 34° |
| 2026-04-26 10:06 | 51.01428 | 10.56662 | 33310 ft | 496 kts | 34° |
| 2026-04-26 10:07 | 51.07042 | 10.63036 | 33314 ft | 496 kts | 34° |
| 2026-04-26 10:07 | 51.12651 | 10.69433 | 33318 ft | 495 kts | 34° |
| 2026-04-26 10:08 | 51.17832 | 10.76682 | 33315 ft | 498 kts | 48° |
| 2026-04-26 10:08 | 51.21692 | 10.85761 | 33320 ft | 499 kts | 61° |
| 2026-04-26 10:09 | 51.22772 | 10.89086 | 33326 ft | 499 kts | 62° |
| 2026-04-26 10:10 | 51.31273 | 11.15853 | 33319 ft | 501 kts | 61° |
| 2026-04-26 10:10 | 51.34473 | 11.25806 | 33320 ft | 502 kts | 61° |
| 2026-04-26 10:11 | 51.37667 | 11.35757 | 33316 ft | 502 kts | 61° |
| 2026-04-26 10:11 | 51.40832 | 11.45667 | 33321 ft | 503 kts | 61° |
| 2026-04-26 10:12 | 51.44012 | 11.55669 | 33322 ft | 503 kts | 61° |
| 2026-04-26 10:12 | 51.47181 | 11.65679 | 33301 ft | 502 kts | 61° |
| 2026-04-26 10:13 | 51.50321 | 11.75639 | 33326 ft | 502 kts | 61° |
| 2026-04-26 10:13 | 51.53463 | 11.85646 | 33337 ft | 502 kts | 61° |
| 2026-04-26 10:14 | 51.56604 | 11.95687 | 33314 ft | 502 kts | 60° |
| 2026-04-26 10:14 | 51.59715 | 12.05677 | 33319 ft | 502 kts | 60° |
| 2026-04-26 10:15 | 51.62843 | 12.15763 | 33320 ft | 503 kts | 60° |
| 2026-04-26 10:15 | 51.65961 | 12.25855 | 33322 ft | 503 kts | 60° |
| 2026-04-26 10:16 | 51.69073 | 12.35972 | 33315 ft | 504 kts | 60° |
| 2026-04-26 10:16 | 51.72157 | 12.46040 | 33315 ft | 504 kts | 60° |
| 2026-04-26 10:17 | 51.75263 | 12.56220 | 33310 ft | 505 kts | 60° |
| 2026-04-26 10:17 | 51.78358 | 12.66412 | 33313 ft | 505 kts | 60° |
| 2026-04-26 10:18 | 51.81446 | 12.76619 | 33316 ft | 505 kts | 60° |
| 2026-04-26 10:18 | 51.84503 | 12.86770 | 33316 ft | 505 kts | 60° |
| 2026-04-26 10:19 | 51.87574 | 12.97009 | 33316 ft | 505 kts | 60° |
| 2026-04-26 10:19 | 51.90633 | 13.07252 | 33320 ft | 504 kts | 60° |
| 2026-04-26 10:20 | 51.93171 | 13.15781 | 33315 ft | 504 kts | 60° |
| 2026-04-26 10:20 | 51.96705 | 13.27712 | 33315 ft | 505 kts | 60° |
| 2026-04-26 10:21 | 51.99735 | 13.37988 | 33306 ft | 505 kts | 60° |
| 2026-04-26 10:21 | 52.02757 | 13.48283 | 33301 ft | 505 kts | 60° |
| 2026-04-26 10:22 | 52.05777 | 13.58612 | 33305 ft | 506 kts | 60° |
| 2026-04-26 10:22 | 52.08794 | 13.68976 | 33303 ft | 506 kts | 60° |
| 2026-04-26 10:23 | 52.11799 | 13.79347 | 33306 ft | 507 kts | 60° |
| 2026-04-26 10:23 | 52.14782 | 13.89686 | 33299 ft | 508 kts | 60° |
| 2026-04-26 10:24 | 52.17786 | 14.00143 | 33514 ft | 510 kts | 60° |
| 2026-04-26 10:24 | 52.19283 | 14.05372 | 33962 ft | 508 kts | 60° |
| 2026-04-26 10:24 | 52.20771 | 14.10588 | 34411 ft | 505 kts | 60° |
| 2026-04-26 10:25 | 52.22246 | 14.15769 | 34774 ft | 503 kts | 60° |
| 2026-04-26 10:25 | 52.23718 | 14.20946 | 35116 ft | 502 kts | 60° |
| 2026-04-26 10:25 | 52.25188 | 14.26122 | 35226 ft | 504 kts | 60° |
| 2026-04-26 10:25 | 52.26665 | 14.31331 | 35277 ft | 505 kts | 60° |
| 2026-04-26 10:26 | 52.29600 | 14.41731 | 35287 ft | 503 kts | 60° |
| 2026-04-26 10:26 | 52.32497 | 14.52048 | 35287 ft | 501 kts | 60° |
| 2026-04-26 10:27 | 52.35392 | 14.62399 | 35289 ft | 500 kts | 60° |
| 2026-04-26 10:27 | 52.38282 | 14.72775 | 35286 ft | 500 kts | 60° |
| 2026-04-26 10:28 | 52.41159 | 14.83146 | 35283 ft | 500 kts | 60° |
| 2026-04-26 10:28 | 52.44034 | 14.93559 | 35292 ft | 501 kts | 60° |
| 2026-04-26 10:29 | 52.46886 | 15.03938 | 35287 ft | 502 kts | 60° |
| 2026-04-26 10:29 | 52.49753 | 15.14420 | 35287 ft | 503 kts | 60° |
| 2026-04-26 10:30 | 52.52614 | 15.24930 | 35281 ft | 504 kts | 60° |
| 2026-04-26 10:30 | 52.55472 | 15.35474 | 35285 ft | 505 kts | 60° |
| 2026-04-26 10:31 | 52.58323 | 15.46038 | 35272 ft | 505 kts | 60° |
| 2026-04-26 10:31 | 52.61167 | 15.56629 | 35275 ft | 506 kts | 60° |
| 2026-04-26 10:32 | 52.63985 | 15.67167 | 35268 ft | 506 kts | 60° |
| 2026-04-26 10:32 | 52.66808 | 15.77780 | 35272 ft | 506 kts | 60° |
| 2026-04-26 10:33 | 52.69625 | 15.88415 | 35271 ft | 506 kts | 60° |
| 2026-04-26 10:33 | 52.72430 | 15.99053 | 35267 ft | 506 kts | 60° |
| 2026-04-26 10:34 | 52.75214 | 16.09667 | 35265 ft | 506 kts | 60° |
| 2026-04-26 10:34 | 52.78001 | 16.20334 | 35262 ft | 506 kts | 60° |
| 2026-04-26 10:35 | 52.80314 | 16.29232 | 35269 ft | 506 kts | 60° |
| 2026-04-26 10:35 | 52.83540 | 16.41693 | 35266 ft | 506 kts | 60° |
| 2026-04-26 10:36 | 52.85851 | 16.50666 | 35248 ft | 506 kts | 60° |
| 2026-04-26 10:36 | 52.88602 | 16.61394 | 35254 ft | 506 kts | 60° |
| 2026-04-26 10:37 | 52.91327 | 16.72072 | 35252 ft | 506 kts | 60° |
| 2026-04-26 10:37 | 52.94062 | 16.82837 | 35252 ft | 506 kts | 60° |
| 2026-04-26 10:38 | 52.96793 | 16.93639 | 35244 ft | 506 kts | 60° |
| 2026-04-26 10:38 | 52.99491 | 17.04364 | 35250 ft | 507 kts | 61° |
| 2026-04-26 10:39 | 53.02199 | 17.15180 | 35239 ft | 507 kts | 61° |
| 2026-04-26 10:39 | 53.04897 | 17.26011 | 35237 ft | 508 kts | 61° |
| 2026-04-26 10:40 | 53.07594 | 17.36889 | 35239 ft | 508 kts | 61° |
| 2026-04-26 10:40 | 53.10281 | 17.47779 | 35219 ft | 509 kts | 61° |
| 2026-04-26 10:41 | 53.12957 | 17.58681 | 35210 ft | 509 kts | 61° |
| 2026-04-26 10:41 | 53.15629 | 17.69625 | 35200 ft | 509 kts | 61° |
| 2026-04-26 10:42 | 53.18276 | 17.80514 | 35195 ft | 509 kts | 61° |
| 2026-04-26 10:42 | 53.20928 | 17.91483 | 35193 ft | 509 kts | 62° |
| 2026-04-26 10:43 | 53.23572 | 18.02472 | 35199 ft | 509 kts | 62° |
| 2026-04-26 10:43 | 53.26188 | 18.13394 | 35198 ft | 510 kts | 62° |
| 2026-04-26 10:44 | 53.28810 | 18.24408 | 35198 ft | 510 kts | 62° |
| 2026-04-26 10:44 | 53.31427 | 18.35450 | 35197 ft | 510 kts | 62° |
| 2026-04-26 10:45 | 53.34035 | 18.46511 | 35185 ft | 510 kts | 62° |
| 2026-04-26 10:45 | 53.36616 | 18.57515 | 35187 ft | 511 kts | 62° |
| 2026-04-26 10:46 | 53.39206 | 18.68618 | 35179 ft | 511 kts | 62° |
| 2026-04-26 10:46 | 53.41787 | 18.79734 | 35180 ft | 511 kts | 63° |
| 2026-04-26 10:47 | 53.44359 | 18.90876 | 35178 ft | 512 kts | 63° |
| 2026-04-26 10:47 | 53.46922 | 19.02034 | 35171 ft | 512 kts | 63° |
| 2026-04-26 10:48 | 53.49473 | 19.13197 | 35170 ft | 512 kts | 63° |
| 2026-04-26 10:48 | 53.51999 | 19.24310 | 35163 ft | 512 kts | 63° |
| 2026-04-26 10:49 | 53.54528 | 19.35497 | 35163 ft | 511 kts | 63° |
| 2026-04-26 10:49 | 53.57047 | 19.46696 | 35162 ft | 511 kts | 63° |
| 2026-04-26 10:50 | 53.59134 | 19.56024 | 35158 ft | 511 kts | 64° |
| 2026-04-26 10:50 | 53.62037 | 19.69060 | 35155 ft | 512 kts | 64° |
| 2026-04-26 10:51 | 53.65768 | 19.85945 | 35157 ft | 513 kts | 64° |
| 2026-04-26 10:52 | 53.68258 | 19.97285 | 35135 ft | 514 kts | 64° |
| 2026-04-26 10:52 | 53.70725 | 20.08584 | 35135 ft | 515 kts | 64° |
| 2026-04-26 10:53 | 53.73193 | 20.19952 | 35136 ft | 515 kts | 64° |
| 2026-04-26 10:53 | 53.75651 | 20.31341 | 35133 ft | 516 kts | 65° |
| 2026-04-26 10:54 | 53.79318 | 20.48443 | 35122 ft | 517 kts | 65° |
| 2026-04-26 10:54 | 53.81763 | 20.59930 | 35113 ft | 518 kts | 65° |
| 2026-04-26 10:55 | 53.84202 | 20.71445 | 35108 ft | 519 kts | 65° |
| 2026-04-26 10:55 | 53.86614 | 20.82904 | 35098 ft | 520 kts | 65° |
| 2026-04-26 10:56 | 53.89038 | 20.94487 | 35100 ft | 521 kts | 65° |
| 2026-04-26 10:56 | 53.91455 | 21.06105 | 35085 ft | 522 kts | 66° |
| 2026-04-26 10:57 | 53.93867 | 21.17762 | 35087 ft | 523 kts | 66° |
| 2026-04-26 10:57 | 53.96252 | 21.29361 | 35074 ft | 523 kts | 66° |
| 2026-04-26 10:58 | 53.98644 | 21.41054 | 35072 ft | 524 kts | 66° |
| 2026-04-26 10:58 | 54.01028 | 21.52784 | 35054 ft | 525 kts | 66° |
| 2026-04-26 10:59 | 54.03391 | 21.64479 | 35056 ft | 525 kts | 66° |
| 2026-04-26 10:59 | 54.05755 | 21.76251 | 35045 ft | 526 kts | 66° |
| 2026-04-26 11:00 | 54.08108 | 21.88034 | 35037 ft | 526 kts | 67° |
| 2026-04-26 11:00 | 54.10458 | 21.99878 | 35025 ft | 526 kts | 67° |
| 2026-04-26 11:01 | 54.12781 | 22.11651 | 35021 ft | 526 kts | 67° |
| 2026-04-26 11:01 | 54.15105 | 22.23507 | 35004 ft | 526 kts | 67° |
| 2026-04-26 11:02 | 54.17416 | 22.35375 | 35007 ft | 526 kts | 67° |
| 2026-04-26 11:02 | 54.19722 | 22.47273 | 35015 ft | 526 kts | 67° |
| 2026-04-26 11:03 | 54.21996 | 22.59086 | 34998 ft | 526 kts | 67° |
| 2026-04-26 11:03 | 54.24275 | 22.71004 | 34990 ft | 526 kts | 67° |
| 2026-04-26 11:04 | 54.26540 | 22.82921 | 34969 ft | 526 kts | 68° |
| 2026-04-26 11:04 | 54.28797 | 22.94870 | 34973 ft | 526 kts | 68° |
| 2026-04-26 11:05 | 54.31026 | 23.06749 | 34943 ft | 526 kts | 68° |
| 2026-04-26 11:05 | 54.33253 | 23.18695 | 34951 ft | 525 kts | 68° |
| 2026-04-26 11:06 | 54.35095 | 23.28626 | 34939 ft | 525 kts | 68° |
| 2026-04-26 11:06 | 54.37660 | 23.42547 | 34943 ft | 525 kts | 68° |
| 2026-04-26 11:07 | 54.39851 | 23.54526 | 34926 ft | 526 kts | 68° |
| 2026-04-26 11:07 | 54.42030 | 23.66518 | 34919 ft | 526 kts | 68° |
| 2026-04-26 11:08 | 54.44183 | 23.78439 | 34903 ft | 526 kts | 68° |
| 2026-04-26 11:08 | 54.46341 | 23.90467 | 34905 ft | 526 kts | 68° |
| 2026-04-26 11:09 | 54.48485 | 24.02498 | 34890 ft | 526 kts | 68° |
| 2026-04-26 11:09 | 54.50618 | 24.14546 | 34888 ft | 526 kts | 68° |
| 2026-04-26 11:10 | 54.52738 | 24.26603 | 34868 ft | 526 kts | 69° |
| 2026-04-26 11:10 | 54.54832 | 24.38591 | 34871 ft | 526 kts | 69° |
| 2026-04-26 11:11 | 54.56931 | 24.50688 | 34859 ft | 526 kts | 69° |
| 2026-04-26 11:11 | 54.59013 | 24.62763 | 34862 ft | 525 kts | 69° |
| 2026-04-26 11:12 | 54.61074 | 24.74802 | 34851 ft | 525 kts | 69° |
| 2026-04-26 11:12 | 54.63133 | 24.86916 | 34849 ft | 525 kts | 69° |
| 2026-04-26 11:13 | 54.65183 | 24.99059 | 34830 ft | 526 kts | 69° |
| 2026-04-26 11:13 | 54.67216 | 25.11186 | 34838 ft | 525 kts | 70° |
| 2026-04-26 11:14 | 54.69240 | 25.23338 | 34833 ft | 525 kts | 70° |
| 2026-04-26 11:14 | 54.70913 | 25.33451 | 34843 ft | 525 kts | 70° |
| 2026-04-26 11:15 | 54.73238 | 25.47605 | 34832 ft | 525 kts | 70° |
| 2026-04-26 11:15 | 54.75225 | 25.59797 | 34826 ft | 525 kts | 70° |
| 2026-04-26 11:16 | 54.77195 | 25.71969 | 34811 ft | 525 kts | 70° |
| 2026-04-26 11:16 | 54.78826 | 25.82111 | 34806 ft | 525 kts | 70° |
| 2026-04-26 11:17 | 54.81090 | 25.96296 | 34786 ft | 525 kts | 71° |
| 2026-04-26 11:17 | 54.83026 | 26.08520 | 34780 ft | 524 kts | 71° |
| 2026-04-26 11:18 | 54.84622 | 26.18662 | 34763 ft | 524 kts | 71° |
| 2026-04-26 11:18 | 54.86534 | 26.30893 | 34771 ft | 524 kts | 71° |
| 2026-04-26 11:19 | 54.88432 | 26.43132 | 34761 ft | 524 kts | 71° |
| 2026-04-26 11:19 | 54.90317 | 26.55378 | 34757 ft | 524 kts | 71° |
| 2026-04-26 11:20 | 54.92176 | 26.67540 | 34745 ft | 524 kts | 71° |
| 2026-04-26 11:20 | 54.94034 | 26.79792 | 34744 ft | 523 kts | 71° |
| 2026-04-26 11:21 | 54.95881 | 26.92055 | 34736 ft | 523 kts | 72° |
| 2026-04-26 11:21 | 54.97716 | 27.04334 | 34733 ft | 523 kts | 72° |
| 2026-04-26 11:22 | 54.99525 | 27.16541 | 34722 ft | 523 kts | 72° |
| 2026-04-26 11:22 | 55.01332 | 27.28828 | 34725 ft | 523 kts | 72° |
| 2026-04-26 11:23 | 55.03128 | 27.41127 | 34701 ft | 522 kts | 72° |
| 2026-04-26 11:23 | 55.04898 | 27.53347 | 34710 ft | 522 kts | 72° |
| 2026-04-26 11:24 | 55.06665 | 27.65640 | 34707 ft | 521 kts | 72° |
| 2026-04-26 11:24 | 55.08415 | 27.77916 | 34703 ft | 521 kts | 73° |
| 2026-04-26 11:25 | 55.10152 | 27.90196 | 34693 ft | 520 kts | 73° |
| 2026-04-26 11:25 | 55.11866 | 28.02415 | 34697 ft | 520 kts | 73° |
| 2026-04-26 11:26 | 55.13579 | 28.14705 | 34679 ft | 519 kts | 73° |
| 2026-04-26 11:26 | 55.15009 | 28.27087 | 34676 ft | 521 kts | 81° |
| 2026-04-26 11:27 | 55.15760 | 28.39707 | 34662 ft | 521 kts | 82° |
| 2026-04-26 11:27 | 55.16441 | 28.52232 | 34663 ft | 520 kts | 82° |
| 2026-04-26 11:28 | 55.17154 | 28.64846 | 34930 ft | 520 kts | 82° |
| 2026-04-26 11:28 | 55.17519 | 28.71180 | 34809 ft | 523 kts | 82° |
| 2026-04-26 11:28 | 55.17883 | 28.77497 | 34731 ft | 521 kts | 83° |
| 2026-04-26 11:29 | 55.18601 | 28.90097 | 34643 ft | 520 kts | 83° |
| 2026-04-26 11:29 | 55.19303 | 29.02704 | 34637 ft | 521 kts | 83° |
| 2026-04-26 11:30 | 55.19878 | 29.13209 | 34628 ft | 524 kts | 83° |
| 2026-04-26 11:30 | 55.20669 | 29.28015 | 34616 ft | 522 kts | 83° |
| 2026-04-26 11:31 | 55.21335 | 29.40713 | 34613 ft | 523 kts | 83° |
| 2026-04-26 11:31 | 55.21986 | 29.53413 | 34609 ft | 524 kts | 84° |
| 2026-04-26 11:32 | 55.22627 | 29.66154 | 34589 ft | 523 kts | 84° |
| 2026-04-26 11:32 | 55.23254 | 29.78871 | 34602 ft | 525 kts | 84° |
| 2026-04-26 11:33 | 55.23864 | 29.91552 | 34587 ft | 523 kts | 84° |
| 2026-04-26 11:33 | 55.24464 | 30.04278 | 34601 ft | 523 kts | 84° |
| 2026-04-26 11:34 | 55.25049 | 30.16971 | 34608 ft | 526 kts | 85° |
| 2026-04-26 11:34 | 55.25623 | 30.29731 | 34597 ft | 522 kts | 85° |
| 2026-04-26 11:35 | 55.26181 | 30.42432 | 34607 ft | 523 kts | 85° |
| 2026-04-26 11:35 | 55.26638 | 30.53048 | 34601 ft | 525 kts | 85° |
| 2026-04-26 11:36 | 55.27262 | 30.67910 | 34576 ft | 519 kts | 85° |
| 2026-04-26 11:36 | 55.27799 | 30.80411 | 34575 ft | 515 kts | 83° |
| 2026-04-26 11:37 | 55.29171 | 30.92727 | 34554 ft | 513 kts | 72° |
| 2026-04-26 11:37 | 55.31464 | 31.04527 | 34551 ft | 507 kts | 70° |
| 2026-04-26 11:38 | 55.33775 | 31.16261 | 34551 ft | 508 kts | 71° |
| 2026-04-26 11:38 | 55.36001 | 31.27970 | 34565 ft | 509 kts | 71° |
| 2026-04-26 11:39 | 55.38223 | 31.39803 | 34558 ft | 509 kts | 71° |
| 2026-04-26 11:39 | 55.40428 | 31.51646 | 34545 ft | 509 kts | 71° |
| 2026-04-26 11:40 | 55.42620 | 31.63498 | 34542 ft | 507 kts | 72° |
| 2026-04-26 11:40 | 55.44788 | 31.75282 | 34557 ft | 509 kts | 72° |
| 2026-04-26 11:42 | 55.53422 | 32.22965 | 34559 ft | 516 kts | 72° |
| 2026-04-26 11:43 | 55.55584 | 32.35102 | 34533 ft | 518 kts | 73° |
| 2026-04-26 11:43 | 55.57739 | 32.47279 | 34544 ft | 519 kts | 73° |
| 2026-04-26 11:44 | 55.59868 | 32.59393 | 34545 ft | 518 kts | 73° |
| 2026-04-26 11:44 | 55.61995 | 32.71575 | 34539 ft | 517 kts | 73° |
| 2026-04-26 11:45 | 55.64107 | 32.83756 | 34541 ft | 517 kts | 73° |
| 2026-04-26 11:45 | 55.66202 | 32.95923 | 34539 ft | 516 kts | 73° |
| 2026-04-26 11:46 | 55.68280 | 33.08071 | 34537 ft | 515 kts | 73° |
| 2026-04-26 11:46 | 55.70338 | 33.20176 | 34534 ft | 515 kts | 74° |
| 2026-04-26 11:47 | 55.72395 | 33.32375 | 34533 ft | 515 kts | 74° |
| 2026-04-26 11:47 | 55.74418 | 33.44488 | 34530 ft | 515 kts | 74° |
| 2026-04-26 11:48 | 55.76445 | 33.56702 | 34526 ft | 515 kts | 74° |
| 2026-04-26 11:48 | 55.78460 | 33.68928 | 34524 ft | 516 kts | 75° |
| 2026-04-26 11:49 | 55.80467 | 33.81191 | 34517 ft | 516 kts | 75° |
| 2026-04-26 11:49 | 55.82462 | 33.93469 | 34517 ft | 516 kts | 75° |
| 2026-04-26 11:50 | 55.84437 | 34.05707 | 34512 ft | 517 kts | 75° |
| 2026-04-26 11:50 | 55.86413 | 34.18040 | 34506 ft | 517 kts | 75° |
| 2026-04-26 11:51 | 55.88357 | 34.30382 | 34503 ft | 517 kts | 78° |
| 2026-04-26 11:51 | 55.89456 | 34.42988 | 34495 ft | 514 kts | 89° |
| 2026-04-26 11:52 | 55.89625 | 34.53574 | 34501 ft | 514 kts | 91° |
| 2026-04-26 11:52 | 55.89816 | 34.68399 | 34496 ft | 515 kts | 91° |
| 2026-04-26 11:53 | 55.90028 | 34.81178 | 34489 ft | 515 kts | 90° |
| 2026-04-26 11:54 | 55.90343 | 35.00363 | 34477 ft | 516 kts | 91° |
| 2026-04-26 11:54 | 55.90533 | 35.13146 | 34474 ft | 516 kts | 91° |
| 2026-04-26 11:55 | 55.90717 | 35.25889 | 34468 ft | 516 kts | 91° |
| 2026-04-26 11:55 | 55.90891 | 35.38704 | 34463 ft | 516 kts | 91° |
| 2026-04-26 11:56 | 55.91050 | 35.51510 | 34460 ft | 516 kts | 91° |
| 2026-04-26 11:56 | 55.91195 | 35.64314 | 34454 ft | 516 kts | 91° |
| 2026-04-26 11:57 | 55.91328 | 35.77032 | 34450 ft | 516 kts | 92° |
| 2026-04-26 11:57 | 55.91571 | 35.89829 | 34445 ft | 516 kts | 89° |
| 2026-04-26 11:58 | 55.92143 | 36.02619 | 34442 ft | 517 kts | 88° |
| 2026-04-26 11:58 | 55.92749 | 36.15414 | 34442 ft | 517 kts | 88° |
| 2026-04-26 11:59 | 55.93311 | 36.28144 | 34441 ft | 517 kts | 88° |
| 2026-04-26 11:59 | 55.93754 | 36.38775 | 34443 ft | 517 kts | 89° |
| 2026-04-26 12:00 | 55.94357 | 36.53692 | 34438 ft | 518 kts | 89° |
| 2026-04-26 12:00 | 55.94782 | 36.64441 | 34436 ft | 518 kts | 89° |
| 2026-04-26 12:01 | 55.95276 | 36.77206 | 34440 ft | 518 kts | 89° |
| 2026-04-26 12:01 | 55.95759 | 36.90050 | 34427 ft | 519 kts | 89° |
| 2026-04-26 12:02 | 55.96230 | 37.02924 | 34420 ft | 519 kts | 90° |
| 2026-04-26 12:02 | 55.96688 | 37.15825 | 34414 ft | 520 kts | 90° |
| 2026-04-26 12:03 | 55.97131 | 37.28632 | 34417 ft | 520 kts | 90° |
| 2026-04-26 12:03 | 55.97538 | 37.41531 | 34410 ft | 520 kts | 90° |
| 2026-04-26 12:04 | 55.97904 | 37.54443 | 34410 ft | 520 kts | 91° |
| 2026-04-26 12:04 | 55.98264 | 37.67349 | 34421 ft | 520 kts | 91° |
| 2026-04-26 12:05 | 55.98620 | 37.80306 | 34409 ft | 523 kts | 91° |
| 2026-04-26 12:05 | 55.98986 | 37.93219 | 34404 ft | 522 kts | 91° |
| 2026-04-26 12:06 | 55.99349 | 38.06177 | 34417 ft | 521 kts | 91° |
| 2026-04-26 12:06 | 55.99695 | 38.19096 | 34416 ft | 520 kts | 91° |
| 2026-04-26 12:07 | 56.00024 | 38.32018 | 34423 ft | 519 kts | 91° |
| 2026-04-26 12:07 | 56.00336 | 38.44825 | 34411 ft | 519 kts | 91° |
| 2026-04-26 12:08 | 56.00637 | 38.57716 | 34425 ft | 519 kts | 92° |
| 2026-04-26 12:08 | 56.00926 | 38.70684 | 34421 ft | 521 kts | 92° |
| 2026-04-26 12:09 | 56.01202 | 38.83622 | 34420 ft | 520 kts | 92° |
| 2026-04-26 12:09 | 56.01462 | 38.96479 | 34435 ft | 520 kts | 92° |
| 2026-04-26 12:10 | 56.01710 | 39.09413 | 34433 ft | 521 kts | 92° |
| 2026-04-26 12:10 | 56.01945 | 39.22394 | 34432 ft | 521 kts | 92° |
| 2026-04-26 12:11 | 56.02165 | 39.35273 | 34435 ft | 521 kts | 92° |
| 2026-04-26 12:11 | 56.02374 | 39.48287 | 34429 ft | 521 kts | 93° |
| 2026-04-26 12:12 | 56.02571 | 39.61249 | 34439 ft | 521 kts | 93° |
| 2026-04-26 12:12 | 56.02799 | 39.74140 | 34449 ft | 522 kts | 92° |
| 2026-04-26 12:13 | 56.03039 | 39.87123 | 34436 ft | 522 kts | 93° |
| 2026-04-26 12:13 | 56.03216 | 40.00107 | 34445 ft | 522 kts | 93° |
| 2026-04-26 12:14 | 56.03376 | 40.13104 | 34445 ft | 522 kts | 93° |
| 2026-04-26 12:14 | 56.03530 | 40.26102 | 34448 ft | 522 kts | 94° |
| 2026-04-26 12:15 | 56.03674 | 40.39039 | 34453 ft | 523 kts | 94° |
| 2026-04-26 12:15 | 56.03804 | 40.52045 | 34457 ft | 523 kts | 94° |
| 2026-04-26 12:16 | 56.03921 | 40.65081 | 34461 ft | 524 kts | 94° |
| 2026-04-26 12:16 | 56.04025 | 40.78125 | 34462 ft | 524 kts | 94° |
| 2026-04-26 12:17 | 56.04107 | 40.91198 | 34474 ft | 525 kts | 94° |
| 2026-04-26 12:17 | 56.04175 | 41.04214 | 34473 ft | 526 kts | 94° |
| 2026-04-26 12:18 | 56.04231 | 41.17311 | 34481 ft | 527 kts | 94° |
| 2026-04-26 12:18 | 56.04274 | 41.30475 | 34484 ft | 528 kts | 95° |
| 2026-04-26 12:19 | 56.04303 | 41.43553 | 34495 ft | 528 kts | 95° |
| 2026-04-26 12:19 | 56.04318 | 41.56729 | 34501 ft | 529 kts | 95° |
| 2026-04-26 12:20 | 56.04319 | 41.69904 | 34504 ft | 529 kts | 95° |
| 2026-04-26 12:20 | 56.04306 | 41.83083 | 34519 ft | 530 kts | 95° |
| 2026-04-26 12:21 | 56.04279 | 41.96280 | 34510 ft | 530 kts | 95° |
| 2026-04-26 12:21 | 56.04238 | 42.09406 | 34519 ft | 530 kts | 95° |
| 2026-04-26 12:22 | 56.04183 | 42.22588 | 34522 ft | 530 kts | 95° |
| 2026-04-26 12:22 | 56.04114 | 42.35775 | 34539 ft | 530 kts | 95° |
| 2026-04-26 12:23 | 56.04032 | 42.48995 | 34531 ft | 531 kts | 95° |
| 2026-04-26 12:23 | 56.03920 | 42.62198 | 34531 ft | 530 kts | 96° |
| 2026-04-26 12:24 | 56.03758 | 42.75375 | 34540 ft | 529 kts | 96° |
| 2026-04-26 12:24 | 56.03583 | 42.88460 | 34548 ft | 529 kts | 96° |
| 2026-04-26 12:25 | 56.03305 | 43.08217 | 34558 ft | 530 kts | 96° |
| 2026-04-26 12:25 | 56.03104 | 43.21423 | 34564 ft | 530 kts | 96° |
| 2026-04-26 12:26 | 56.02983 | 43.34558 | 34577 ft | 533 kts | 92° |
| 2026-04-26 12:26 | 56.03743 | 43.47844 | 34581 ft | 537 kts | 86° |
| 2026-04-26 12:27 | 56.04713 | 43.61049 | 34579 ft | 538 kts | 86° |
| 2026-04-26 12:27 | 56.05639 | 43.74345 | 34584 ft | 538 kts | 86° |
| 2026-04-26 12:28 | 56.06513 | 43.87689 | 34584 ft | 539 kts | 86° |
| 2026-04-26 12:28 | 56.07362 | 44.01015 | 34586 ft | 539 kts | 86° |
| 2026-04-26 12:29 | 56.08203 | 44.14379 | 34606 ft | 539 kts | 86° |
| 2026-04-26 12:30 | 56.09437 | 44.34347 | 34602 ft | 539 kts | 86° |
| 2026-04-26 12:30 | 56.10243 | 44.47686 | 34608 ft | 537 kts | 86° |
| 2026-04-26 12:31 | 56.11303 | 44.67614 | 34623 ft | 533 kts | 92° |
| 2026-04-26 12:31 | 56.11081 | 44.80782 | 34615 ft | 530 kts | 96° |
| 2026-04-26 12:32 | 56.10739 | 44.93987 | 34633 ft | 530 kts | 96° |
| 2026-04-26 12:33 | 56.10312 | 45.13831 | 34632 ft | 531 kts | 96° |
| 2026-04-26 12:33 | 56.09989 | 45.27048 | 34636 ft | 531 kts | 96° |
| 2026-04-26 12:34 | 56.09658 | 45.40186 | 34646 ft | 531 kts | 96° |
| 2026-04-26 12:34 | 56.09312 | 45.53407 | 34654 ft | 531 kts | 96° |
| 2026-04-26 12:35 | 56.08953 | 45.66627 | 34658 ft | 531 kts | 96° |
| 2026-04-26 12:35 | 56.08583 | 45.79760 | 34663 ft | 531 kts | 96° |
| 2026-04-26 12:36 | 56.08195 | 45.92973 | 34658 ft | 530 kts | 96° |
| 2026-04-26 12:36 | 56.07794 | 46.06171 | 34666 ft | 530 kts | 96° |
| 2026-04-26 12:37 | 56.07380 | 46.19354 | 34668 ft | 530 kts | 96° |
| 2026-04-26 12:37 | 56.06954 | 46.32464 | 34677 ft | 530 kts | 96° |
| 2026-04-26 12:38 | 56.06512 | 46.45661 | 34680 ft | 530 kts | 96° |
| 2026-04-26 12:38 | 56.06298 | 46.58868 | 34691 ft | 531 kts | 91° |
| 2026-04-26 12:39 | 56.06457 | 46.72000 | 34693 ft | 531 kts | 90° |
| 2026-04-26 12:39 | 56.06625 | 46.85223 | 34702 ft | 530 kts | 91° |
| 2026-04-26 12:40 | 56.06746 | 46.98433 | 34717 ft | 531 kts | 91° |
| 2026-04-26 12:40 | 56.06837 | 47.11647 | 34710 ft | 531 kts | 91° |
| 2026-04-26 12:41 | 56.06913 | 47.24791 | 34721 ft | 530 kts | 91° |
| 2026-04-26 12:41 | 56.06977 | 47.38009 | 34720 ft | 530 kts | 91° |
| 2026-04-26 12:42 | 56.07021 | 47.48975 | 34723 ft | 529 kts | 91° |
| 2026-04-26 12:42 | 56.07061 | 47.62157 | 34720 ft | 530 kts | 91° |
| 2026-04-26 12:43 | 56.07087 | 47.75336 | 34723 ft | 529 kts | 91° |
| 2026-04-26 12:43 | 56.07101 | 47.88531 | 34729 ft | 529 kts | 91° |
| 2026-04-26 12:44 | 56.07098 | 48.01715 | 34740 ft | 528 kts | 91° |
| 2026-04-26 12:44 | 56.07081 | 48.14793 | 34745 ft | 528 kts | 91° |
| 2026-04-26 12:45 | 56.07052 | 48.27954 | 34751 ft | 528 kts | 91° |
| 2026-04-26 12:45 | 56.07010 | 48.41129 | 34757 ft | 528 kts | 91° |
| 2026-04-26 12:46 | 56.06953 | 48.54296 | 34761 ft | 528 kts | 91° |
| 2026-04-26 12:46 | 56.06883 | 48.67358 | 34763 ft | 528 kts | 91° |
| 2026-04-26 12:47 | 56.06799 | 48.80516 | 34772 ft | 528 kts | 91° |
| 2026-04-26 12:47 | 56.06700 | 48.93685 | 34772 ft | 528 kts | 91° |
| 2026-04-26 12:48 | 56.06588 | 49.06864 | 34780 ft | 528 kts | 91° |
| 2026-04-26 12:48 | 56.06462 | 49.19932 | 34783 ft | 528 kts | 91° |
| 2026-04-26 12:49 | 56.06322 | 49.33088 | 34787 ft | 527 kts | 91° |
| 2026-04-26 12:49 | 56.06168 | 49.46197 | 34791 ft | 527 kts | 92° |
| 2026-04-26 12:50 | 56.06000 | 49.59354 | 34792 ft | 527 kts | 92° |
| 2026-04-26 12:50 | 56.05821 | 49.72402 | 34806 ft | 527 kts | 92° |
| 2026-04-26 12:51 | 56.05628 | 49.85517 | 34806 ft | 527 kts | 92° |
| 2026-04-26 12:51 | 56.05426 | 49.98663 | 34811 ft | 527 kts | 92° |
| 2026-04-26 12:52 | 56.05216 | 50.11698 | 34816 ft | 527 kts | 92° |
| 2026-04-26 12:52 | 56.04990 | 50.24820 | 34814 ft | 527 kts | 92° |
| 2026-04-26 12:53 | 56.04750 | 50.37933 | 34827 ft | 527 kts | 92° |
| 2026-04-26 12:53 | 56.04496 | 50.51038 | 34827 ft | 527 kts | 92° |
| 2026-04-26 12:54 | 56.04228 | 50.64153 | 34829 ft | 527 kts | 92° |
| 2026-04-26 12:54 | 56.03949 | 50.77245 | 34831 ft | 527 kts | 92° |
| 2026-04-26 12:55 | 56.03715 | 50.90273 | 34837 ft | 527 kts | 90° |
| 2026-04-26 12:55 | 56.03791 | 51.03367 | 34847 ft | 526 kts | 89° |
| 2026-04-26 12:56 | 56.03906 | 51.16482 | 34849 ft | 527 kts | 89° |
| 2026-04-26 12:56 | 56.03952 | 51.29593 | 34852 ft | 527 kts | 90° |
| 2026-04-26 12:57 | 56.03956 | 51.42714 | 34859 ft | 527 kts | 90° |
| 2026-04-26 12:57 | 56.03949 | 51.55769 | 34860 ft | 527 kts | 90° |
| 2026-04-26 12:58 | 56.03920 | 51.75463 | 34865 ft | 527 kts | 90° |
| 2026-04-26 12:58 | 56.04045 | 51.88566 | 34866 ft | 527 kts | 86° |
| 2026-04-26 12:59 | 56.04522 | 52.01657 | 34869 ft | 527 kts | 85° |
| 2026-04-26 12:59 | 56.05010 | 52.14680 | 34871 ft | 527 kts | 85° |
| 2026-04-26 13:00 | 56.05453 | 52.27801 | 34877 ft | 528 kts | 86° |
| 2026-04-26 13:00 | 56.05869 | 52.40928 | 34875 ft | 528 kts | 86° |
| 2026-04-26 13:01 | 56.06274 | 52.54067 | 34885 ft | 528 kts | 86° |
| 2026-04-26 13:01 | 56.06663 | 52.67216 | 34876 ft | 528 kts | 86° |
| 2026-04-26 13:02 | 56.07011 | 52.80279 | 34889 ft | 528 kts | 86° |
| 2026-04-26 13:02 | 56.07346 | 52.93446 | 34896 ft | 529 kts | 86° |
| 2026-04-26 13:03 | 56.07671 | 53.06613 | 34892 ft | 529 kts | 86° |
| 2026-04-26 13:03 | 56.07983 | 53.19737 | 34897 ft | 529 kts | 86° |
| 2026-04-26 13:04 | 56.08282 | 53.32923 | 34893 ft | 529 kts | 86° |
| 2026-04-26 13:04 | 56.08567 | 53.46112 | 34895 ft | 529 kts | 87° |
| 2026-04-26 13:05 | 56.08838 | 53.59218 | 34899 ft | 530 kts | 87° |
| 2026-04-26 13:05 | 56.09076 | 53.72422 | 34900 ft | 530 kts | 87° |
| 2026-04-26 13:06 | 56.09293 | 53.85647 | 34900 ft | 530 kts | 87° |
| 2026-04-26 13:06 | 56.09501 | 53.98848 | 34906 ft | 530 kts | 87° |
| 2026-04-26 13:07 | 56.09695 | 54.11996 | 34904 ft | 531 kts | 87° |
| 2026-04-26 13:07 | 56.09879 | 54.25222 | 34904 ft | 531 kts | 87° |
| 2026-04-26 13:08 | 56.09650 | 54.38457 | 34907 ft | 532 kts | 97° |
| 2026-04-26 13:08 | 56.08297 | 54.51487 | 34914 ft | 531 kts | 102° |
| 2026-04-26 13:09 | 56.06803 | 54.64455 | 34908 ft | 532 kts | 101° |
| 2026-04-26 13:09 | 56.05346 | 54.77428 | 34907 ft | 532 kts | 101° |
| 2026-04-26 13:10 | 56.03918 | 54.90326 | 34904 ft | 532 kts | 101° |
| 2026-04-26 13:10 | 56.02466 | 55.03315 | 34913 ft | 531 kts | 101° |
| 2026-04-26 13:11 | 56.00999 | 55.16282 | 34905 ft | 531 kts | 101° |
| 2026-04-26 13:11 | 55.99518 | 55.29220 | 34904 ft | 531 kts | 101° |
| 2026-04-26 13:12 | 55.98037 | 55.42051 | 34907 ft | 530 kts | 101° |
| 2026-04-26 13:12 | 55.96532 | 55.54953 | 34903 ft | 530 kts | 102° |
| 2026-04-26 13:13 | 55.95009 | 55.67828 | 34906 ft | 529 kts | 102° |
| 2026-04-26 13:13 | 55.93487 | 55.80583 | 34906 ft | 528 kts | 102° |
| 2026-04-26 13:14 | 55.91939 | 55.93445 | 34905 ft | 528 kts | 102° |
| 2026-04-26 13:14 | 55.90385 | 56.06241 | 34907 ft | 527 kts | 102° |
| 2026-04-26 13:15 | 55.88818 | 56.19030 | 34912 ft | 527 kts | 102° |
| 2026-04-26 13:15 | 55.87508 | 56.29626 | 34912 ft | 527 kts | 102° |
| 2026-04-26 13:16 | 55.85661 | 56.44433 | 34910 ft | 526 kts | 102° |
| 2026-04-26 13:16 | 55.84062 | 56.57135 | 34921 ft | 526 kts | 102° |
| 2026-04-26 13:17 | 55.81639 | 56.76178 | 34924 ft | 526 kts | 103° |
| 2026-04-26 13:18 | 55.79182 | 56.95262 | 34925 ft | 526 kts | 103° |
| 2026-04-26 13:19 | 55.76717 | 57.14191 | 34934 ft | 526 kts | 103° |
| 2026-04-26 13:19 | 55.75050 | 57.26859 | 34928 ft | 526 kts | 103° |
| 2026-04-26 13:20 | 55.73369 | 57.39529 | 34934 ft | 526 kts | 103° |
| 2026-04-26 13:20 | 55.71680 | 57.52144 | 34936 ft | 526 kts | 103° |
| 2026-04-26 13:21 | 55.69984 | 57.64701 | 34944 ft | 526 kts | 104° |
| 2026-04-26 13:21 | 55.68267 | 57.77318 | 34937 ft | 526 kts | 104° |
| 2026-04-26 13:22 | 55.66541 | 57.89908 | 34942 ft | 525 kts | 104° |
| 2026-04-26 13:22 | 55.64805 | 58.02421 | 34937 ft | 525 kts | 104° |
| 2026-04-26 13:23 | 55.63045 | 58.15006 | 34943 ft | 525 kts | 104° |
| 2026-04-26 13:23 | 55.61576 | 58.25435 | 34942 ft | 525 kts | 104° |
| 2026-04-26 13:24 | 55.59799 | 58.37974 | 34940 ft | 525 kts | 104° |
| 2026-04-26 13:24 | 55.58010 | 58.50496 | 34937 ft | 525 kts | 105° |
| 2026-04-26 13:25 | 55.56206 | 58.63016 | 34939 ft | 525 kts | 105° |
| 2026-04-26 13:25 | 55.54403 | 58.75435 | 34936 ft | 525 kts | 105° |
| 2026-04-26 13:26 | 55.52577 | 58.87913 | 34944 ft | 525 kts | 105° |
| 2026-04-26 13:26 | 55.50737 | 59.00385 | 34938 ft | 525 kts | 105° |
| 2026-04-26 13:27 | 55.48884 | 59.12851 | 34939 ft | 525 kts | 105° |
| 2026-04-26 13:27 | 55.47019 | 59.25301 | 34936 ft | 525 kts | 105° |
| 2026-04-26 13:28 | 55.45141 | 59.37740 | 34934 ft | 525 kts | 105° |
| 2026-04-26 13:28 | 55.43250 | 59.50172 | 34937 ft | 525 kts | 106° |
| 2026-04-26 13:29 | 55.41348 | 59.62593 | 34932 ft | 525 kts | 106° |
| 2026-04-26 13:29 | 55.39423 | 59.75006 | 34933 ft | 525 kts | 107° |
| 2026-04-26 13:30 | 55.36932 | 59.86990 | 34934 ft | 524 kts | 113° |
| 2026-04-26 13:30 | 55.34163 | 59.98858 | 34933 ft | 524 kts | 114° |
| 2026-04-26 13:31 | 55.31389 | 60.10725 | 34924 ft | 525 kts | 114° |
| 2026-04-26 13:31 | 55.28635 | 60.22598 | 34929 ft | 524 kts | 113° |
| 2026-04-26 13:32 | 55.25902 | 60.34396 | 34923 ft | 524 kts | 114° |
| 2026-04-26 13:32 | 55.23147 | 60.46228 | 34919 ft | 523 kts | 114° |
| 2026-04-26 13:33 | 55.20379 | 60.58040 | 34915 ft | 523 kts | 114° |
| 2026-04-26 13:33 | 55.17606 | 60.69797 | 34914 ft | 522 kts | 114° |
| 2026-04-26 13:34 | 55.14844 | 60.81445 | 34911 ft | 521 kts | 114° |
| 2026-04-26 13:34 | 55.12058 | 60.93133 | 34910 ft | 520 kts | 114° |
| 2026-04-26 13:35 | 55.09261 | 61.04805 | 34908 ft | 520 kts | 114° |
| 2026-04-26 13:35 | 55.06453 | 61.16456 | 34913 ft | 520 kts | 115° |
| 2026-04-26 13:36 | 55.03632 | 61.28103 | 34915 ft | 520 kts | 115° |
| 2026-04-26 13:36 | 55.00821 | 61.39644 | 34898 ft | 521 kts | 115° |
| 2026-04-26 13:37 | 54.97978 | 61.51258 | 34913 ft | 521 kts | 115° |
| 2026-04-26 13:37 | 54.95125 | 61.62847 | 34901 ft | 521 kts | 115° |
| 2026-04-26 13:38 | 54.92252 | 61.74462 | 34899 ft | 521 kts | 115° |
| 2026-04-26 13:38 | 54.89386 | 61.85981 | 34898 ft | 522 kts | 115° |
| 2026-04-26 13:39 | 54.86484 | 61.97588 | 34892 ft | 522 kts | 115° |
| 2026-04-26 13:39 | 54.83595 | 62.09081 | 34896 ft | 522 kts | 116° |
| 2026-04-26 13:40 | 54.80674 | 62.20643 | 34897 ft | 522 kts | 116° |
| 2026-04-26 13:40 | 54.77764 | 62.32103 | 34901 ft | 522 kts | 116° |
| 2026-04-26 13:41 | 54.74826 | 62.43610 | 34898 ft | 522 kts | 116° |
| 2026-04-26 13:41 | 54.71879 | 62.55094 | 34903 ft | 522 kts | 116° |
| 2026-04-26 13:42 | 54.68923 | 62.66558 | 34901 ft | 521 kts | 116° |
| 2026-04-26 13:42 | 54.65955 | 62.78006 | 34902 ft | 521 kts | 116° |
| 2026-04-26 13:43 | 54.62993 | 62.89372 | 34906 ft | 521 kts | 116° |
| 2026-04-26 13:43 | 54.60000 | 63.00802 | 34908 ft | 521 kts | 117° |
| 2026-04-26 13:44 | 54.56999 | 63.12203 | 34914 ft | 521 kts | 117° |
| 2026-04-26 13:44 | 54.53987 | 63.23590 | 34911 ft | 522 kts | 117° |
| 2026-04-26 13:45 | 54.50984 | 63.34882 | 34908 ft | 522 kts | 117° |
| 2026-04-26 13:45 | 54.47950 | 63.46238 | 34910 ft | 521 kts | 117° |
| 2026-04-26 13:46 | 54.44905 | 63.57578 | 34919 ft | 521 kts | 117° |
| 2026-04-26 13:46 | 54.41852 | 63.68892 | 34920 ft | 521 kts | 117° |
| 2026-04-26 13:47 | 54.38808 | 63.80116 | 34921 ft | 521 kts | 117° |
| 2026-04-26 13:47 | 54.35736 | 63.91388 | 34930 ft | 521 kts | 118° |
| 2026-04-26 13:48 | 54.32648 | 64.02665 | 34924 ft | 521 kts | 118° |
| 2026-04-26 13:48 | 54.29547 | 64.13930 | 34928 ft | 521 kts | 118° |
| 2026-04-26 13:49 | 54.26445 | 64.25150 | 34920 ft | 521 kts | 118° |
| 2026-04-26 13:49 | 54.23349 | 64.36289 | 34918 ft | 521 kts | 118° |
| 2026-04-26 13:50 | 54.20224 | 64.47480 | 34938 ft | 521 kts | 118° |
| 2026-04-26 13:50 | 54.17089 | 64.58650 | 34940 ft | 521 kts | 118° |
| 2026-04-26 13:51 | 54.13951 | 64.69783 | 34947 ft | 520 kts | 118° |
| 2026-04-26 13:51 | 54.10800 | 64.80905 | 34946 ft | 520 kts | 119° |
| 2026-04-26 13:52 | 54.07668 | 64.91907 | 34949 ft | 519 kts | 119° |
| 2026-04-26 13:52 | 54.04505 | 65.02966 | 34946 ft | 519 kts | 119° |
| 2026-04-26 13:53 | 54.01336 | 65.13995 | 34951 ft | 518 kts | 119° |
| 2026-04-26 13:53 | 53.98157 | 65.25004 | 35026 ft | 520 kts | 119° |
| 2026-04-26 13:53 | 53.96575 | 65.30463 | 35328 ft | 520 kts | 120° |
| 2026-04-26 13:54 | 53.94980 | 65.35959 | 35692 ft | 518 kts | 120° |
| 2026-04-26 13:54 | 53.93386 | 65.41436 | 36075 ft | 516 kts | 120° |
| 2026-04-26 13:54 | 53.91793 | 65.46899 | 36389 ft | 515 kts | 120° |
| 2026-04-26 13:55 | 53.88601 | 65.57800 | 36879 ft | 516 kts | 120° |
| 2026-04-26 13:55 | 53.87537 | 65.61422 | 36904 ft | 518 kts | 120° |
| 2026-04-26 13:56 | 53.82180 | 65.79579 | 36964 ft | 516 kts | 120° |
| 2026-04-26 13:56 | 53.78966 | 65.90412 | 36975 ft | 514 kts | 120° |
| 2026-04-26 13:57 | 53.75742 | 66.01224 | 36976 ft | 514 kts | 120° |
| 2026-04-26 13:57 | 53.72514 | 66.11997 | 36975 ft | 513 kts | 120° |
| 2026-04-26 13:58 | 53.69276 | 66.22757 | 36981 ft | 513 kts | 121° |
| 2026-04-26 13:58 | 53.66027 | 66.33505 | 36979 ft | 514 kts | 121° |
| 2026-04-26 13:59 | 53.62783 | 66.44189 | 36983 ft | 515 kts | 121° |
| 2026-04-26 13:59 | 53.59505 | 66.54938 | 36987 ft | 515 kts | 121° |
| 2026-04-26 14:00 | 53.52915 | 66.76400 | 36987 ft | 516 kts | 121° |
| 2026-04-26 14:01 | 53.49617 | 66.87070 | 36989 ft | 517 kts | 121° |
| 2026-04-26 14:01 | 53.46289 | 66.97791 | 36987 ft | 517 kts | 121° |
| 2026-04-26 14:02 | 53.42951 | 67.08492 | 36989 ft | 517 kts | 121° |
| 2026-04-26 14:02 | 53.39604 | 67.19179 | 36989 ft | 517 kts | 121° |
| 2026-04-26 14:03 | 53.36273 | 67.29766 | 36989 ft | 517 kts | 121° |
| 2026-04-26 14:03 | 53.32908 | 67.40414 | 36982 ft | 516 kts | 122° |
| 2026-04-26 14:04 | 53.29535 | 67.51041 | 36980 ft | 516 kts | 122° |
| 2026-04-26 14:04 | 53.26159 | 67.61632 | 36980 ft | 516 kts | 122° |
| 2026-04-26 14:05 | 53.22796 | 67.72135 | 36978 ft | 515 kts | 122° |
| 2026-04-26 14:05 | 53.19407 | 67.82675 | 36980 ft | 515 kts | 122° |
| 2026-04-26 14:06 | 53.16584 | 67.91419 | 36976 ft | 515 kts | 122° |
| 2026-04-26 14:06 | 53.13182 | 68.01916 | 36968 ft | 514 kts | 122° |
| 2026-04-26 14:07 | 53.09765 | 68.12411 | 36973 ft | 514 kts | 122° |
| 2026-04-26 14:07 | 53.06348 | 68.22867 | 36966 ft | 514 kts | 122° |
| 2026-04-26 14:08 | 53.02922 | 68.33303 | 36974 ft | 513 kts | 122° |
| 2026-04-26 14:08 | 52.99506 | 68.43663 | 36974 ft | 513 kts | 122° |
| 2026-04-26 14:09 | 52.96061 | 68.54067 | 36967 ft | 513 kts | 123° |
| 2026-04-26 14:09 | 52.92615 | 68.64431 | 36961 ft | 512 kts | 123° |
| 2026-04-26 14:10 | 52.89188 | 68.74697 | 36963 ft | 512 kts | 123° |
| 2026-04-26 14:10 | 52.85729 | 68.85014 | 36964 ft | 511 kts | 123° |
| 2026-04-26 14:11 | 52.80532 | 69.00433 | 36964 ft | 511 kts | 123° |
| 2026-04-26 14:11 | 52.77059 | 69.10685 | 36966 ft | 510 kts | 123° |
| 2026-04-26 14:12 | 52.73612 | 69.20817 | 36962 ft | 510 kts | 123° |
| 2026-04-26 14:12 | 52.70129 | 69.31013 | 36968 ft | 509 kts | 123° |
| 2026-04-26 14:13 | 52.64892 | 69.46266 | 36967 ft | 508 kts | 123° |
| 2026-04-26 14:14 | 52.61420 | 69.56328 | 36983 ft | 508 kts | 124° |
| 2026-04-26 14:14 | 52.57921 | 69.66428 | 36982 ft | 507 kts | 124° |
| 2026-04-26 14:15 | 52.54417 | 69.76499 | 36975 ft | 507 kts | 124° |
| 2026-04-26 14:15 | 52.50904 | 69.86558 | 36970 ft | 507 kts | 124° |
| 2026-04-26 14:16 | 52.47387 | 69.96587 | 36972 ft | 506 kts | 124° |
| 2026-04-26 14:16 | 52.43882 | 70.06540 | 36972 ft | 506 kts | 124° |
| 2026-04-26 14:17 | 52.40355 | 70.16517 | 36973 ft | 506 kts | 124° |
| 2026-04-26 14:17 | 52.36818 | 70.26483 | 36976 ft | 505 kts | 124° |
| 2026-04-26 14:18 | 52.33273 | 70.36431 | 36977 ft | 505 kts | 124° |
| 2026-04-26 14:18 | 52.29743 | 70.46298 | 36977 ft | 505 kts | 125° |
| 2026-04-26 14:19 | 52.26188 | 70.56197 | 36976 ft | 505 kts | 125° |
| 2026-04-26 14:19 | 52.22624 | 70.66082 | 36979 ft | 505 kts | 125° |
| 2026-04-26 14:20 | 52.19053 | 70.75948 | 36983 ft | 505 kts | 125° |
| 2026-04-26 14:20 | 52.15475 | 70.85793 | 36985 ft | 504 kts | 125° |
| 2026-04-26 14:21 | 52.11891 | 70.95620 | 36989 ft | 504 kts | 125° |
| 2026-04-26 14:21 | 52.08318 | 71.05374 | 36987 ft | 504 kts | 126° |
| 2026-04-26 14:22 | 52.04716 | 71.15172 | 36989 ft | 504 kts | 126° |
| 2026-04-26 14:22 | 52.01111 | 71.24943 | 36988 ft | 504 kts | 126° |
| 2026-04-26 14:23 | 51.97520 | 71.34635 | 36995 ft | 503 kts | 126° |
| 2026-04-26 14:23 | 51.93905 | 71.44356 | 36997 ft | 503 kts | 126° |
| 2026-04-26 14:24 | 51.90281 | 71.54063 | 36997 ft | 503 kts | 126° |
| 2026-04-26 14:24 | 51.86647 | 71.63759 | 36994 ft | 502 kts | 126° |
| 2026-04-26 14:25 | 51.83038 | 71.73353 | 37002 ft | 502 kts | 126° |
| 2026-04-26 14:25 | 51.79401 | 71.82987 | 37008 ft | 502 kts | 127° |
| 2026-04-26 14:26 | 51.75753 | 71.92611 | 37008 ft | 501 kts | 127° |
| 2026-04-26 14:26 | 51.72104 | 72.02203 | 37012 ft | 501 kts | 127° |
| 2026-04-26 14:27 | 51.68450 | 72.11769 | 37014 ft | 501 kts | 127° |
| 2026-04-26 14:27 | 51.64783 | 72.21338 | 37030 ft | 501 kts | 127° |
| 2026-04-26 14:28 | 51.61109 | 72.30886 | 37024 ft | 501 kts | 127° |
| 2026-04-26 14:28 | 51.57454 | 72.40351 | 37033 ft | 501 kts | 127° |
| 2026-04-26 14:29 | 51.53758 | 72.49887 | 37044 ft | 501 kts | 127° |
| 2026-04-26 14:29 | 51.50057 | 72.59400 | 37045 ft | 502 kts | 128° |
| 2026-04-26 14:30 | 51.46347 | 72.68902 | 37052 ft | 502 kts | 128° |
| 2026-04-26 14:30 | 51.42656 | 72.78318 | 37054 ft | 502 kts | 128° |
| 2026-04-26 14:31 | 51.38929 | 72.87795 | 37054 ft | 502 kts | 128° |
| 2026-04-26 14:31 | 51.35184 | 72.97281 | 37061 ft | 503 kts | 128° |
| 2026-04-26 14:32 | 51.31439 | 73.06731 | 37060 ft | 503 kts | 128° |
| 2026-04-26 14:32 | 51.27680 | 73.16180 | 37062 ft | 503 kts | 128° |
| 2026-04-26 14:33 | 51.23941 | 73.25548 | 37066 ft | 503 kts | 128° |
| 2026-04-26 14:33 | 51.20171 | 73.34960 | 37062 ft | 502 kts | 128° |
| 2026-04-26 14:34 | 51.16390 | 73.44364 | 37060 ft | 502 kts | 128° |
| 2026-04-26 14:34 | 51.12634 | 73.53671 | 37073 ft | 502 kts | 128° |
| 2026-04-26 14:35 | 51.08849 | 73.63019 | 37072 ft | 501 kts | 128° |
| 2026-04-26 14:35 | 51.05065 | 73.72329 | 37070 ft | 501 kts | 129° |
| 2026-04-26 14:36 | 51.01273 | 73.81625 | 37069 ft | 500 kts | 129° |
| 2026-04-26 14:36 | 50.97482 | 73.90884 | 37072 ft | 499 kts | 129° |
| 2026-04-26 14:37 | 50.94326 | 73.98570 | 37074 ft | 499 kts | 129° |
| 2026-04-26 14:38 | 50.82748 | 74.26566 | 37079 ft | 497 kts | 129° |
| 2026-04-26 14:39 | 50.78941 | 74.35707 | 37077 ft | 497 kts | 129° |
| 2026-04-26 14:39 | 50.75123 | 74.44842 | 37072 ft | 497 kts | 129° |
| 2026-04-26 14:40 | 50.71329 | 74.53888 | 37068 ft | 496 kts | 129° |
| 2026-04-26 14:40 | 50.67504 | 74.62976 | 37068 ft | 496 kts | 129° |
| 2026-04-26 14:41 | 50.63683 | 74.72023 | 37059 ft | 495 kts | 129° |
| 2026-04-26 14:41 | 50.59880 | 74.80998 | 37061 ft | 495 kts | 129° |
| 2026-04-26 14:42 | 50.56052 | 74.90000 | 37067 ft | 494 kts | 130° |
| 2026-04-26 14:42 | 50.52218 | 74.98984 | 37069 ft | 494 kts | 130° |
| 2026-04-26 14:43 | 50.48384 | 75.07937 | 37062 ft | 494 kts | 130° |
| 2026-04-26 14:43 | 50.44539 | 75.16886 | 37048 ft | 494 kts | 130° |
| 2026-04-26 14:44 | 50.40689 | 75.25817 | 37054 ft | 494 kts | 130° |
| 2026-04-26 14:44 | 50.36856 | 75.34678 | 37052 ft | 494 kts | 130° |
| 2026-04-26 14:45 | 50.32995 | 75.43572 | 37043 ft | 494 kts | 130° |
| 2026-04-26 14:45 | 50.29122 | 75.52464 | 37044 ft | 494 kts | 131° |
| 2026-04-26 14:46 | 50.25241 | 75.61346 | 37030 ft | 494 kts | 131° |
| 2026-04-26 14:46 | 50.21360 | 75.70198 | 37028 ft | 494 kts | 131° |
| 2026-04-26 14:47 | 50.17488 | 75.79001 | 37020 ft | 494 kts | 131° |
| 2026-04-26 14:47 | 50.13593 | 75.87826 | 37012 ft | 493 kts | 131° |
| 2026-04-26 14:48 | 50.09691 | 75.96636 | 37009 ft | 493 kts | 131° |
| 2026-04-26 14:48 | 50.05804 | 76.05383 | 37000 ft | 493 kts | 131° |
| 2026-04-26 14:49 | 50.01890 | 76.14161 | 37004 ft | 493 kts | 131° |
| 2026-04-26 14:49 | 49.97961 | 76.22945 | 36988 ft | 494 kts | 131° |
| 2026-04-26 14:50 | 49.94026 | 76.31714 | 36967 ft | 494 kts | 131° |
| 2026-04-26 14:50 | 49.90111 | 76.40407 | 36965 ft | 494 kts | 131° |
| 2026-04-26 14:51 | 49.86163 | 76.49147 | 36960 ft | 495 kts | 131° |
| 2026-04-26 14:51 | 49.82206 | 76.57877 | 36948 ft | 495 kts | 131° |
| 2026-04-26 14:52 | 49.78238 | 76.66603 | 36950 ft | 495 kts | 131° |
| 2026-04-26 14:52 | 49.74267 | 76.75306 | 36946 ft | 495 kts | 131° |
| 2026-04-26 14:53 | 49.70288 | 76.84000 | 36947 ft | 495 kts | 131° |
| 2026-04-26 14:53 | 49.66325 | 76.92630 | 36949 ft | 495 kts | 131° |
| 2026-04-26 14:54 | 49.62327 | 77.01307 | 36932 ft | 494 kts | 131° |
| 2026-04-26 14:54 | 49.58336 | 77.09940 | 36929 ft | 494 kts | 131° |
| 2026-04-26 14:55 | 49.54368 | 77.18499 | 36929 ft | 493 kts | 131° |
| 2026-04-26 14:55 | 49.50368 | 77.27095 | 36919 ft | 493 kts | 132° |
| 2026-04-26 14:56 | 49.46371 | 77.35660 | 36913 ft | 492 kts | 132° |
| 2026-04-26 14:56 | 49.42364 | 77.44217 | 36909 ft | 492 kts | 132° |
| 2026-04-26 14:57 | 49.38363 | 77.52734 | 36894 ft | 492 kts | 132° |
| 2026-04-26 14:57 | 49.34377 | 77.61194 | 36904 ft | 492 kts | 132° |
| 2026-04-26 14:58 | 49.30360 | 77.69689 | 36910 ft | 492 kts | 132° |
| 2026-04-26 14:58 | 49.26340 | 77.78165 | 36899 ft | 492 kts | 132° |
| 2026-04-26 14:59 | 49.22301 | 77.86654 | 36905 ft | 492 kts | 132° |
| 2026-04-26 14:59 | 49.18261 | 77.95120 | 36909 ft | 493 kts | 132° |
| 2026-04-26 15:00 | 49.14207 | 78.03588 | 36921 ft | 493 kts | 132° |
| 2026-04-26 15:00 | 49.10138 | 78.12061 | 36925 ft | 494 kts | 132° |
| 2026-04-26 15:01 | 49.06085 | 78.20472 | 36937 ft | 495 kts | 132° |
| 2026-04-26 15:01 | 49.01986 | 78.28953 | 36933 ft | 496 kts | 132° |
| 2026-04-26 15:02 | 48.97881 | 78.37418 | 36936 ft | 497 kts | 132° |
| 2026-04-26 15:02 | 48.93765 | 78.45881 | 36945 ft | 497 kts | 132° |
| 2026-04-26 15:03 | 48.89665 | 78.54284 | 36950 ft | 498 kts | 132° |
| 2026-04-26 15:03 | 48.85531 | 78.62733 | 36954 ft | 498 kts | 131° |
| 2026-04-26 15:04 | 48.81399 | 78.71148 | 36966 ft | 499 kts | 131° |
| 2026-04-26 15:04 | 48.77243 | 78.79586 | 36970 ft | 499 kts | 131° |
| 2026-04-26 15:05 | 48.73080 | 78.88012 | 36974 ft | 499 kts | 131° |
| 2026-04-26 15:05 | 48.68904 | 78.96439 | 36992 ft | 499 kts | 131° |
| 2026-04-26 15:06 | 48.64731 | 79.04831 | 36997 ft | 499 kts | 131° |
| 2026-04-26 15:06 | 48.60578 | 79.13159 | 36997 ft | 499 kts | 131° |
| 2026-04-26 15:07 | 48.54296 | 79.25708 | 37001 ft | 498 kts | 132° |
| 2026-04-26 15:07 | 48.50102 | 79.34051 | 37012 ft | 498 kts | 132° |
| 2026-04-26 15:08 | 48.45899 | 79.42388 | 37010 ft | 499 kts | 131° |
| 2026-04-26 15:08 | 48.41714 | 79.50665 | 37020 ft | 499 kts | 131° |
| 2026-04-26 15:09 | 48.37502 | 79.58968 | 37028 ft | 499 kts | 131° |
| 2026-04-26 15:09 | 48.33280 | 79.67266 | 37031 ft | 499 kts | 131° |
| 2026-04-26 15:10 | 48.29764 | 79.74156 | 37029 ft | 499 kts | 131° |
| 2026-04-26 15:10 | 48.24842 | 79.83774 | 37031 ft | 499 kts | 131° |
| 2026-04-26 15:11 | 48.20598 | 79.92038 | 37034 ft | 499 kts | 131° |
| 2026-04-26 15:11 | 48.16342 | 80.00302 | 37048 ft | 500 kts | 131° |
| 2026-04-26 15:12 | 48.12103 | 80.08508 | 37034 ft | 500 kts | 131° |
| 2026-04-26 15:12 | 48.07837 | 80.16740 | 37044 ft | 500 kts | 131° |
| 2026-04-26 15:13 | 48.03564 | 80.24963 | 37035 ft | 500 kts | 131° |
| 2026-04-26 15:13 | 47.99286 | 80.33170 | 37045 ft | 501 kts | 131° |
| 2026-04-26 15:14 | 47.94998 | 80.41377 | 37047 ft | 501 kts | 131° |
| 2026-04-26 15:14 | 47.90977 | 80.49818 | 37052 ft | 504 kts | 125° |
| 2026-04-26 15:15 | 47.87274 | 80.58713 | 37058 ft | 504 kts | 124° |
| 2026-04-26 15:15 | 47.83580 | 80.67618 | 37056 ft | 505 kts | 124° |
| 2026-04-26 15:16 | 47.80486 | 80.74994 | 37065 ft | 505 kts | 124° |
| 2026-04-26 15:16 | 47.76741 | 80.83847 | 37069 ft | 505 kts | 124° |
| 2026-04-26 15:17 | 47.73620 | 80.91192 | 37075 ft | 505 kts | 124° |
| 2026-04-26 15:17 | 47.69244 | 81.01457 | 37084 ft | 505 kts | 124° |
| 2026-04-26 15:18 | 47.65477 | 81.10268 | 37087 ft | 505 kts | 124° |
| 2026-04-26 15:18 | 47.61710 | 81.19054 | 37093 ft | 505 kts | 124° |
| 2026-04-26 15:19 | 47.57931 | 81.27838 | 37101 ft | 505 kts | 124° |
| 2026-04-26 15:19 | 47.54144 | 81.36612 | 37101 ft | 504 kts | 124° |
| 2026-04-26 15:20 | 47.50380 | 81.45304 | 37099 ft | 504 kts | 124° |
| 2026-04-26 15:20 | 47.46580 | 81.54051 | 37109 ft | 504 kts | 125° |
| 2026-04-26 15:21 | 47.42781 | 81.62770 | 37106 ft | 504 kts | 125° |
| 2026-04-26 15:21 | 47.38994 | 81.71431 | 37114 ft | 504 kts | 125° |
| 2026-04-26 15:22 | 47.35179 | 81.80132 | 37108 ft | 505 kts | 125° |
| 2026-04-26 15:22 | 47.31355 | 81.88825 | 37110 ft | 505 kts | 124° |
| 2026-04-26 15:23 | 47.27521 | 81.97512 | 37111 ft | 505 kts | 125° |
| 2026-04-26 15:23 | 47.23677 | 82.06194 | 37108 ft | 506 kts | 125° |
| 2026-04-26 15:24 | 47.19847 | 82.14817 | 37113 ft | 506 kts | 125° |
| 2026-04-26 15:24 | 47.15982 | 82.23495 | 37107 ft | 507 kts | 124° |
| 2026-04-26 15:25 | 47.12754 | 82.30718 | 37122 ft | 507 kts | 125° |
| 2026-04-26 15:25 | 47.08218 | 82.40837 | 37105 ft | 507 kts | 124° |
| 2026-04-26 15:26 | 47.04362 | 82.49414 | 37110 ft | 506 kts | 124° |
| 2026-04-26 15:26 | 47.00473 | 82.58035 | 37106 ft | 506 kts | 124° |
| 2026-04-26 15:27 | 46.96585 | 82.66627 | 37109 ft | 505 kts | 124° |
| 2026-04-26 15:27 | 46.92697 | 82.75194 | 37103 ft | 505 kts | 124° |
| 2026-04-26 15:28 | 46.88805 | 82.83746 | 37100 ft | 505 kts | 124° |
| 2026-04-26 15:28 | 46.84927 | 82.92324 | 37099 ft | 505 kts | 123° |
| 2026-04-26 15:29 | 46.81225 | 83.00981 | 37102 ft | 505 kts | 122° |
| 2026-04-26 15:30 | 46.73763 | 83.18432 | 37095 ft | 506 kts | 122° |
| 2026-04-26 15:30 | 46.69999 | 83.27125 | 37094 ft | 507 kts | 122° |
| 2026-04-26 15:31 | 46.64271 | 83.39996 | 37088 ft | 506 kts | 126° |
| 2026-04-26 15:32 | 46.58720 | 83.51016 | 37088 ft | 507 kts | 127° |
| 2026-04-26 15:32 | 46.53821 | 83.60667 | 37091 ft | 507 kts | 126° |
| 2026-04-26 15:33 | 46.49676 | 83.68876 | 37093 ft | 507 kts | 126° |
| 2026-04-26 15:33 | 46.45506 | 83.77125 | 37094 ft | 506 kts | 126° |
| 2026-04-26 15:34 | 46.41328 | 83.85364 | 37099 ft | 507 kts | 126° |
| 2026-04-26 15:34 | 46.37136 | 83.93602 | 37109 ft | 506 kts | 126° |
| 2026-04-26 15:35 | 46.32972 | 84.01763 | 37117 ft | 507 kts | 126° |
| 2026-04-26 15:35 | 46.28776 | 84.09966 | 37120 ft | 506 kts | 126° |
| 2026-04-26 15:36 | 46.24576 | 84.18138 | 37134 ft | 506 kts | 126° |
| 2026-04-26 15:36 | 46.20350 | 84.26290 | 37134 ft | 506 kts | 126° |
| 2026-04-26 15:37 | 46.16124 | 84.34411 | 37133 ft | 506 kts | 126° |
| 2026-04-26 15:37 | 46.11911 | 84.42496 | 37133 ft | 507 kts | 126° |
| 2026-04-26 15:38 | 46.07666 | 84.50622 | 37127 ft | 508 kts | 126° |
| 2026-04-26 15:38 | 46.03402 | 84.58761 | 37118 ft | 508 kts | 126° |
| 2026-04-26 15:39 | 45.99125 | 84.66903 | 37122 ft | 509 kts | 126° |
| 2026-04-26 15:39 | 45.95564 | 84.73661 | 37114 ft | 510 kts | 126° |
| 2026-04-26 15:40 | 45.90565 | 84.83124 | 37119 ft | 511 kts | 126° |
| 2026-04-26 15:40 | 45.86246 | 84.91274 | 37103 ft | 512 kts | 126° |
| 2026-04-26 15:41 | 45.81945 | 84.99366 | 37111 ft | 513 kts | 126° |
| 2026-04-26 15:41 | 45.77606 | 85.07507 | 37093 ft | 513 kts | 126° |
| 2026-04-26 15:42 | 45.73260 | 85.15640 | 37086 ft | 513 kts | 126° |
| 2026-04-26 15:42 | 45.68915 | 85.23749 | 37091 ft | 513 kts | 126° |
| 2026-04-26 15:43 | 45.64605 | 85.31807 | 37083 ft | 513 kts | 126° |
| 2026-04-26 15:44 | 45.58093 | 85.43972 | 37086 ft | 513 kts | 126° |
| 2026-04-26 15:44 | 45.51570 | 85.56101 | 37085 ft | 513 kts | 126° |
| 2026-04-26 15:45 | 45.45054 | 85.68162 | 37082 ft | 514 kts | 126° |
| 2026-04-26 15:46 | 45.38487 | 85.80264 | 37086 ft | 514 kts | 126° |
| 2026-04-26 15:46 | 45.34846 | 85.86952 | 37088 ft | 515 kts | 126° |
| 2026-04-26 15:47 | 45.27528 | 86.00347 | 37086 ft | 515 kts | 126° |
| 2026-04-26 15:48 | 45.23127 | 86.08374 | 37089 ft | 515 kts | 126° |
| 2026-04-26 15:48 | 45.18731 | 86.16366 | 36832 ft | 511 kts | 126° |
| 2026-04-26 15:48 | 45.16561 | 86.20303 | 36433 ft | 513 kts | 126° |
| 2026-04-26 15:49 | 45.14348 | 86.24314 | 36018 ft | 516 kts | 126° |
| 2026-04-26 15:49 | 45.12130 | 86.28328 | 35645 ft | 517 kts | 126° |
| 2026-04-26 15:49 | 45.09907 | 86.32344 | 35304 ft | 518 kts | 126° |
| 2026-04-26 15:49 | 45.07676 | 86.36371 | 34597 ft | 520 kts | 126° |
| 2026-04-26 15:50 | 45.05441 | 86.40399 | 33801 ft | 520 kts | 125° |
| 2026-04-26 15:50 | 45.03200 | 86.44431 | 32863 ft | 521 kts | 126° |
| 2026-04-26 15:50 | 45.00985 | 86.48414 | 31950 ft | 522 kts | 126° |
| 2026-04-26 15:50 | 44.98735 | 86.52451 | 30976 ft | 524 kts | 126° |
| 2026-04-26 15:51 | 44.96475 | 86.56501 | 30216 ft | 522 kts | 126° |
| 2026-04-26 15:51 | 44.94236 | 86.60504 | 29461 ft | 517 kts | 126° |
| 2026-04-26 15:51 | 44.92017 | 86.64467 | 28791 ft | 511 kts | 126° |
| 2026-04-26 15:51 | 44.89825 | 86.68378 | 28172 ft | 505 kts | 126° |
| 2026-04-26 15:52 | 44.87656 | 86.72246 | 27555 ft | 499 kts | 126° |
| 2026-04-26 15:52 | 44.85508 | 86.76072 | 26950 ft | 494 kts | 126° |
| 2026-04-26 15:52 | 44.83414 | 86.79793 | 26369 ft | 489 kts | 126° |
| 2026-04-26 15:52 | 44.81983 | 86.82323 | 25989 ft | 486 kts | 127° |
| 2026-04-26 15:53 | 44.79181 | 86.87214 | 25217 ft | 481 kts | 127° |
| 2026-04-26 15:53 | 44.77078 | 86.90863 | 24657 ft | 477 kts | 127° |
| 2026-04-26 15:53 | 44.74990 | 86.94482 | 24094 ft | 474 kts | 127° |
| 2026-04-26 15:53 | 44.72913 | 86.98082 | 23482 ft | 472 kts | 127° |
| 2026-04-26 15:54 | 44.70879 | 87.01608 | 22874 ft | 468 kts | 127° |
| 2026-04-26 15:54 | 44.68837 | 87.05148 | 22349 ft | 463 kts | 128° |
| 2026-04-26 15:54 | 44.66814 | 87.08650 | 21789 ft | 459 kts | 128° |
| 2026-04-26 15:54 | 44.64811 | 87.12114 | 21244 ft | 455 kts | 128° |
| 2026-04-26 15:55 | 44.62822 | 87.15551 | 20715 ft | 451 kts | 128° |
| 2026-04-26 15:55 | 44.60849 | 87.18956 | 20185 ft | 447 kts | 128° |
| 2026-04-26 15:55 | 44.58893 | 87.22329 | 19663 ft | 443 kts | 128° |
| 2026-04-26 15:55 | 44.56950 | 87.25673 | 19144 ft | 440 kts | 128° |
| 2026-04-26 15:56 | 44.55022 | 87.28988 | 18611 ft | 437 kts | 128° |
| 2026-04-26 15:56 | 44.53177 | 87.32294 | 18047 ft | 434 kts | 126° |
| 2026-04-26 15:56 | 44.51354 | 87.35702 | 17472 ft | 430 kts | 126° |
| 2026-04-26 15:56 | 44.49594 | 87.38994 | 16946 ft | 425 kts | 126° |
| 2026-04-26 15:57 | 44.47791 | 87.42327 | 16418 ft | 421 kts | 127° |
| 2026-04-26 15:57 | 44.46040 | 87.45549 | 15984 ft | 421 kts | 126° |
| 2026-04-26 15:57 | 44.44272 | 87.48817 | 15657 ft | 419 kts | 126° |
| 2026-04-26 15:57 | 44.43090 | 87.51006 | 15320 ft | 417 kts | 126° |
| 2026-04-26 15:58 | 44.40783 | 87.55279 | 14649 ft | 413 kts | 126° |
| 2026-04-26 15:58 | 44.39063 | 87.58459 | 14145 ft | 408 kts | 127° |
| 2026-04-26 15:58 | 44.37353 | 87.61617 | 13601 ft | 404 kts | 127° |
| 2026-04-26 15:58 | 44.36209 | 87.63729 | 13227 ft | 401 kts | 127° |
| 2026-04-26 15:59 | 44.34551 | 87.66785 | 12701 ft | 397 kts | 127° |
| 2026-04-26 15:59 | 44.32886 | 87.69850 | 12186 ft | 392 kts | 127° |
| 2026-04-26 15:59 | 44.31247 | 87.72865 | 11685 ft | 388 kts | 127° |
| 2026-04-26 15:59 | 44.29618 | 87.75857 | 11142 ft | 385 kts | 127° |
| 2026-04-26 16:00 | 44.28015 | 87.78799 | 10862 ft | 375 kts | 127° |
| 2026-04-26 16:00 | 44.26460 | 87.81653 | 10650 ft | 363 kts | 127° |
| 2026-04-26 16:00 | 44.24974 | 87.84375 | 10483 ft | 351 kts | 127° |
| 2026-04-26 16:00 | 44.23520 | 87.87037 | 10341 ft | 339 kts | 127° |
| 2026-04-26 16:01 | 44.22114 | 87.89607 | 10205 ft | 327 kts | 127° |
| 2026-04-26 16:01 | 44.20757 | 87.92085 | 10073 ft | 315 kts | 127° |
| 2026-04-26 16:01 | 44.19435 | 87.94451 | 9923 ft | 301 kts | 132° |
| 2026-04-26 16:01 | 44.17792 | 87.96121 | 9669 ft | 289 kts | 161° |
| 2026-04-26 16:02 | 44.15884 | 87.96635 | 9451 ft | 275 kts | 182° |
| 2026-04-26 16:02 | 44.14014 | 87.96303 | 9114 ft | 266 kts | 200° |
| 2026-04-26 16:02 | 44.12320 | 87.95384 | 8785 ft | 259 kts | 207° |
| 2026-04-26 16:02 | 44.11246 | 87.94695 | 8587 ft | 255 kts | 208° |
| 2026-04-26 16:03 | 44.09130 | 87.93323 | 8200 ft | 246 kts | 207° |
| 2026-04-26 16:03 | 44.07594 | 87.92354 | 8013 ft | 240 kts | 206° |
| 2026-04-26 16:03 | 44.06082 | 87.91411 | 7919 ft | 243 kts | 206° |
| 2026-04-26 16:03 | 44.04534 | 87.90454 | 7810 ft | 243 kts | 206° |
| 2026-04-26 16:04 | 44.03002 | 87.89511 | 7717 ft | 237 kts | 207° |
| 2026-04-26 16:04 | 44.01690 | 87.88198 | 7542 ft | 234 kts | 234° |
| 2026-04-26 16:04 | 44.00996 | 87.86189 | 7288 ft | 229 kts | 253° |
| 2026-04-26 16:04 | 44.00527 | 87.84093 | 7025 ft | 224 kts | 255° |
| 2026-04-26 16:05 | 44.00091 | 87.82037 | 6786 ft | 221 kts | 255° |
| 2026-04-26 16:05 | 43.99669 | 87.80024 | 6526 ft | 219 kts | 255° |
| 2026-04-26 16:05 | 43.99242 | 87.77989 | 6234 ft | 219 kts | 255° |
| 2026-04-26 16:05 | 43.98815 | 87.75965 | 5946 ft | 218 kts | 255° |
| 2026-04-26 16:06 | 43.98394 | 87.73970 | 5644 ft | 212 kts | 255° |
| 2026-04-26 16:06 | 43.97993 | 87.72069 | 5369 ft | 197 kts | 254° |
| 2026-04-26 16:06 | 43.97620 | 87.70307 | 5173 ft | 190 kts | 254° |
| 2026-04-26 16:06 | 43.97249 | 87.68548 | 4898 ft | 186 kts | 253° |
| 2026-04-26 16:07 | 43.96893 | 87.66860 | 4668 ft | 179 kts | 253° |
| 2026-04-26 16:07 | 43.96540 | 87.65189 | 4443 ft | 181 kts | 253° |
| 2026-04-26 16:07 | 43.96188 | 87.63526 | 4198 ft | 183 kts | 253° |
| 2026-04-26 16:07 | 43.95829 | 87.61825 | 3966 ft | 178 kts | 253° |
| 2026-04-26 16:08 | 43.95490 | 87.60220 | 3726 ft | 173 kts | 253° |
| 2026-04-26 16:08 | 43.95157 | 87.58646 | 3503 ft | 169 kts | 253° |
| 2026-04-26 16:08 | 43.94825 | 87.57072 | 3293 ft | 169 kts | 253° |
| 2026-04-26 16:08 | 43.94497 | 87.55522 | 3058 ft | 165 kts | 253° |
| 2026-04-26 16:09 | 43.94176 | 87.54007 | 2832 ft | 161 kts | 253° |
| 2026-04-26 16:09 | 43.93865 | 87.52536 | 2623 ft | 158 kts | 253° |
| 2026-04-26 16:09 | 43.93557 | 87.51072 | 2411 ft | 157 kts | 253° |
| 2026-04-26 16:09 | 43.93250 | 87.49623 | 2201 ft | 156 kts | 253° |
| 2026-04-26 16:10 | 43.92947 | 87.48187 | 2058 ft | 153 kts | 253° |
| 2026-04-26 16:10 | 43.92709 | 87.47091 | 2006 ft | 0 kts | 255° |